Time;durP1;ratioP1;P1;durP2;ratioP2;P2;SDS_P1;SDS_P2;PMS_P1;PMS_P2;Temp;Humidity;BMP_temperature;BMP_pressure;BME280_temperature;BME280_humidity;BME280_pressure;Samples;Min_cycle;Max_cycle;Signal;HPM_P1;HPM_P2
2022/12/21 00:01:15;;;;;;;;;;;;;;;12.75;53.90;100522.52;2327234;75;50442;-79
2022/12/21 00:04:16;;;;;;;;;;;;;;;12.74;53.95;100510.71;2327064;76;51464;-78
2022/12/21 00:07:18;;;;;;;;;;;;;;;12.75;53.94;100509.25;2326807;75;51613;-78
2022/12/21 00:10:20;;;;;;;;;;;;;;;12.74;53.96;100515.55;2270503;76;52263;-80
2022/12/21 00:13:21;;;;;;;;;;;;;;;12.76;53.93;100516.22;2327023;76;51592;-78
2022/12/21 00:16:23;;;;;;;;;;;;;;;12.76;53.91;100514.06;2327031;75;51431;-79
2022/12/21 00:19:25;;;;;;;;;;;;;;;12.75;53.90;100506.59;2327094;76;50524;-78
2022/12/21 00:22:27;;;;;;;;;;;;;;;12.75;53.94;100497.30;2295919;76;51447;-80
2022/12/21 00:25:28;;;;;;;;;;;;;;;12.75;53.95;100491.98;2332867;75;50762;-77
2022/12/21 00:28:30;;;;;;;;;;;;;;;12.75;53.93;100502.61;2277057;76;51440;-77
2022/12/21 00:31:32;;;;;;;;;;;;;;;12.76;53.95;100488.34;2326658;76;50841;-76
2022/12/21 00:34:34;;;;;;;;;;;;;;;12.76;53.92;100487.02;2295237;76;51640;-77
2022/12/21 00:37:35;;;;;;;;;;;;;;;12.76;53.96;100485.69;2326451;75;50316;-77
2022/12/21 00:40:37;;;;;;;;;;;;;;;12.75;53.97;100486.68;2295326;76;50282;-77
2022/12/21 00:43:39;;;;;;;;;;;;;;;12.75;53.95;100482.70;2326779;76;50777;-77
2022/12/21 00:46:41;;;;;;;;;;;;;;;12.76;53.95;100477.72;2269587;76;52587;-77
2022/12/21 00:49:42;;;;;;;;;;;;;;;12.76;53.98;100481.70;2326698;76;51504;-78
2022/12/21 00:52:44;;;;;;;;;;;;;;;12.76;53.97;100476.39;2295310;76;50630;-78
2022/12/21 00:55:54;;;;;;;;;;;;;;;12.76;53.97;100483.03;2334581;75;50338;-78
2022/12/21 00:58:55;;;;;;;;;;;;;;;12.77;53.97;100479.41;2293825;76;51783;-77
2022/12/21 01:01:57;;;;;;;;;;;;;;;12.76;54.01;100476.89;2326666;75;50730;-77
2022/12/21 01:05:00;;;;;;;;;;;;;;;12.77;54.00;100488.70;2326685;76;51462;-78
2022/12/21 01:08:02;;;;;;;;;;;;;;;12.76;54.00;100472.41;2326749;76;50467;-79
2022/12/21 01:11:03;;;;;;;;;;;;;;;12.76;54.02;100467.09;2295743;76;52357;-79
2022/12/21 01:14:05;;;;;;;;;;;;;;;12.77;54.00;100468.79;2327313;76;51463;-79
2022/12/21 01:17:07;;;;;;;;;;;;;;;12.77;54.01;100468.79;2326997;76;50831;-79
2022/12/21 01:20:09;;;;;;;;;;;;;;;12.77;54.02;100470.12;2295913;76;51503;-80
2022/12/21 01:23:10;;;;;;;;;;;;;;;12.77;54.00;100471.45;2270600;76;52607;-79
2022/12/21 01:26:12;;;;;;;;;;;;;;;12.77;54.03;100468.79;2338150;75;51516;-78
2022/12/21 01:29:13;;;;;;;;;;;;;;;12.79;53.99;100463.31;2327308;76;51492;-79
2022/12/21 01:32:15;;;;;;;;;;;;;;;12.79;53.97;100460.66;2327129;76;51466;-79
2022/12/21 01:35:17;;;;;;;;;;;;;;;12.78;53.98;100458.50;2270215;76;51227;-79
2022/12/21 01:38:18;;;;;;;;;;;;;;;12.78;53.98;100455.84;2270304;76;52061;-79
2022/12/21 01:41:22;;;;;;;;;;;;;;;12.77;54.02;100458.17;2326352;76;51492;-79
2022/12/21 01:44:43;;;;;;;;;;;;;;;12.79;53.99;100456.20;2327076;76;50539;-78
2022/12/21 01:47:46;;;;;;;;;;;;;;;12.79;54.00;100454.02;2294403;75;51845;-79
2022/12/21 01:50:58;;;;;;;;;;;;;;;12.79;53.98;100455.34;2326932;76;51539;-79
2022/12/21 01:54:03;;;;;;;;;;;;;;;12.79;53.99;100440.28;2329711;75;51512;-79
2022/12/21 01:57:05;;;;;;;;;;;;;;;12.80;54.00;100447.74;2342574;75;51623;-79
2022/12/21 02:00:09;;;;;;;;;;;;;;;12.80;54.01;100451.73;2283265;76;51861;-79
2022/12/21 02:03:11;;;;;;;;;;;;;;;12.79;54.00;100446.91;2287954;77;50539;-78
2022/12/21 02:06:23;;;;;;;;;;;;;;;12.79;54.03;100449.57;2287848;77;50482;-79
2022/12/21 02:09:26;;;;;;;;;;;;;;;12.80;54.01;100444.59;2287528;76;51468;-80
2022/12/21 02:12:27;;;;;;;;;;;;;;;12.80;53.99;100442.44;2282768;77;51316;-78
2022/12/21 02:15:47;;;;;;;;;;;;;;;12.81;53.98;100438.78;2288201;77;50408;-79
2022/12/21 02:19:06;;;;;;;;;;;;;;;12.80;54.02;100439.28;2288118;76;50481;-78
2022/12/21 02:22:26;;;;;;;;;;;;;;;12.81;53.99;100440.94;2286615;77;51623;-78
2022/12/21 02:25:32;;;;;;;;;;;;;;;12.81;54.03;100442.27;2301386;76;51065;-80
2022/12/21 02:28:51;;;;;;;;;;;;;;;12.80;54.04;100438.45;2358498;74;51790;-79
2022/12/21 02:32:00;;;;;;;;;;;;;;;12.79;54.08;100430.98;2360963;75;50704;-77
2022/12/21 02:35:20;;;;;;;;;;;;;;;12.80;54.06;100435.80;2349186;75;50497;-79
2022/12/21 02:38:32;;;;;;;;;;;;;;;12.80;54.04;100432.64;2322498;75;51822;-79
2022/12/21 02:41:52;;;;;;;;;;;;;;;12.80;54.06;100429.98;2349371;75;51546;-78
2022/12/21 02:44:55;;;;;;;;;;;;;;;12.79;54.06;100429.66;2349461;75;50503;-78
2022/12/21 02:48:01;;;;;;;;;;;;;;;12.80;54.07;100420.70;2349153;75;51514;-79
2022/12/21 02:51:03;;;;;;;;;;;;;;;12.81;54.06;100420.20;2322584;75;52353;-78
2022/12/21 02:54:05;;;;;;;;;;;;;;;12.81;54.08;100426.83;2338468;75;51372;-79
2022/12/21 02:57:07;;;;;;;;;;;;;;;12.80;54.09;100429.98;2300536;76;51000;-78
2022/12/21 03:00:10;;;;;;;;;;;;;;;12.80;54.10;100427.33;2297526;77;51531;-78
2022/12/21 03:06:48;;;;;;;;;;;;;;;12.82;54.03;100411.27;2297719;77;22528;-79
2022/12/21 03:09:57;;;;;;;;;;;;;;;12.82;54.02;100414.75;2297495;77;50783;-79
2022/12/21 03:13:04;;;;;;;;;;;;;;;12.82;54.08;100417.91;2321667;76;51491;-80
2022/12/21 03:16:13;;;;;;;;;;;;;;;12.82;54.05;100408.61;2295759;76;49685;-79
2022/12/21 03:19:32;;;;;;;;;;;;;;;12.82;54.08;100411.27;2327324;76;52011;-79
2022/12/21 03:22:41;;;;;;;;;;;;;;;12.82;54.09;100410.77;2327205;76;52185;-79
2022/12/21 03:25:44;;;;;;;;;;;;;;;12.80;54.15;100412.73;2338545;75;50811;-79
2022/12/21 03:28:46;;;;;;;;;;;;;;;12.82;54.07;100402.80;2312917;76;51546;-79
2022/12/21 03:31:49;;;;;;;;;;;;;;;12.82;54.10;100405.45;2345892;76;50130;-79
2022/12/21 03:34:51;;;;;;;;;;;;;;;12.83;54.11;100411.59;2345915;76;50439;-79
2022/12/21 03:37:54;;;;;;;;;;;;;;;12.84;54.06;100403.48;2345742;74;51549;-79
2022/12/21 03:40:56;;;;;;;;;;;;;;;12.82;54.12;100405.45;2345803;76;50797;-79
2022/12/21 03:43:58;;;;;;;;;;;;;;;12.83;54.10;100403.13;2345815;75;50502;-79
2022/12/21 03:47:01;;;;;;;;;;;;;;;12.85;54.02;100410.45;2313392;76;51614;-79
2022/12/21 03:50:04;;;;;;;;;;;;;;;12.83;54.11;100395.16;2345904;74;50833;-79
2022/12/21 03:53:10;;;;;;;;;;;;;;;12.84;54.09;100398.18;2313805;76;52715;-79
2022/12/21 03:56:13;;;;;;;;;;;;;;;12.84;54.13;100396.85;2341411;75;50892;-79
2022/12/21 03:59:14;;;;;;;;;;;;;;;12.83;54.11;100397.81;2326994;76;50466;-78
2022/12/21 04:02:30;;;;;;;;;;;;;;;12.84;54.07;100389.36;2326917;75;50448;-78
2022/12/21 04:05:36;;;;;;;;;;;;;;;12.84;54.11;100391.54;2295417;76;51784;-79
2022/12/21 04:08:37;;;;;;;;;;;;;;;12.84;54.09;100392.87;2326670;76;51688;-79
2022/12/21 04:14:58;;;;;;;;;;;;;;;12.85;54.05;100391.88;2327299;76;22466;-78
2022/12/21 04:18:00;;;;;;;;;;;;;;;12.85;54.10;100385.73;2295198;76;51667;-78
2022/12/21 04:21:02;;;;;;;;;;;;;;;12.85;54.08;100385.23;2326901;76;51485;-78
2022/12/21 04:30:42;;;;;;;;;;;;;;;12.85;54.09;100373.78;2319119;76;23376;-77
2022/12/21 04:33:44;;;;;;;;;;;;;;;12.85;54.10;100378.59;2346638;76;50804;-77
2022/12/21 04:40:06;;;;;;;;;;;;;;;12.86;54.09;100376.77;2319107;76;21663;-78
2022/12/21 04:43:08;;;;;;;;;;;;;;;12.86;54.08;100378.92;2288018;76;51025;-78
2022/12/21 04:46:11;;;;;;;;;;;;;;;12.86;54.12;100376.77;2345252;76;51545;-78
2022/12/21 04:49:13;;;;;;;;;;;;;;;12.85;54.17;100377.77;2345301;74;51627;-78
2022/12/21 04:52:14;;;;;;;;;;;;;;;12.87;54.16;100373.14;2313401;76;50575;-78
2022/12/21 04:55:16;;;;;;;;;;;;;;;12.85;54.16;100360.00;2284296;76;49742;-78
2022/12/21 04:58:18;;;;;;;;;;;;;;;12.88;54.11;100369.48;2310380;76;51457;-77
2022/12/21 05:01:20;;;;;;;;;;;;;;;12.88;54.10;100366.00;2345393;76;50226;-78
2022/12/21 05:04:22;;;;;;;;;;;;;;;12.88;54.14;100361.52;2345394;76;50319;-77
2022/12/21 05:07:24;;;;;;;;;;;;;;;12.86;54.17;100364.81;2287594;74;51205;-77
2022/12/21 05:10:26;;;;;;;;;;;;;;;12.89;54.09;100368.98;2345497;76;51537;-78
2022/12/21 05:13:27;;;;;;;;;;;;;;;12.87;54.16;100362.52;2345923;76;52381;-79
2022/12/21 05:16:29;;;;;;;;;;;;;;;12.86;54.22;100370.95;2345763;75;51454;-78
2022/12/21 05:19:33;;;;;;;;;;;;;;;12.88;54.13;100368.16;2288917;76;51029;-77
2022/12/21 05:22:35;;;;;;;;;;;;;;;12.88;54.14;100369.48;2345632;76;50714;-77
2022/12/21 05:25:36;;;;;;;;;;;;;;;12.88;54.11;100366.00;2345165;75;51517;-78
2022/12/21 05:28:38;;;;;;;;;;;;;;;12.89;54.13;100364.51;2312646;76;51519;-78
2022/12/21 05:31:40;;;;;;;;;;;;;;;12.89;54.11;100370.31;2313513;76;51703;-78
2022/12/21 05:34:41;;;;;;;;;;;;;;;12.89;54.17;100370.31;2313277;76;52475;-78
2022/12/21 05:37:43;;;;;;;;;;;;;;;12.88;54.14;100369.48;2313795;74;52041;-77
2022/12/21 05:40:48;;;;;;;;;;;;;;;12.89;54.14;100365.83;2346352;76;51496;-77
2022/12/21 05:43:49;;;;;;;;;;;;;;;12.89;54.16;100366.33;2313758;76;52592;-78
2022/12/21 05:46:51;;;;;;;;;;;;;;;12.89;54.16;100373.80;2345414;75;51460;-78
2022/12/21 05:49:53;;;;;;;;;;;;;;;12.88;54.16;100369.48;2345521;74;51554;-78
2022/12/21 05:52:54;;;;;;;;;;;;;;;12.89;54.18;100376.45;2345738;76;51479;-78
2022/12/21 05:55:56;;;;;;;;;;;;;;;12.89;54.20;100379.11;2273353;75;51680;-78
2022/12/21 05:58:58;;;;;;;;;;;;;;;12.90;54.12;100370.17;2330967;75;51519;-77
2022/12/21 06:01:59;;;;;;;;;;;;;;;12.90;54.17;100378.14;2361142;74;51407;-79
2022/12/21 06:05:01;;;;;;;;;;;;;;;12.90;54.19;100374.66;2331477;75;51442;-78
2022/12/21 06:08:02;;;;;;;;;;;;;;;12.90;54.20;100374.66;2331152;74;51747;-77
2022/12/21 06:11:06;;;;;;;;;;;;;;;12.90;54.15;100375.48;2361164;75;51549;-78
2022/12/21 06:14:07;;;;;;;;;;;;;;;12.93;54.08;100377.00;2361052;75;51587;-78
2022/12/21 06:17:10;;;;;;;;;;;;;;;12.91;54.10;100371.83;2361233;75;50771;-78
2022/12/21 06:20:12;;;;;;;;;;;;;;;12.91;54.14;100374.48;2331185;75;52454;-79
2022/12/21 06:23:14;;;;;;;;;;;;;;;12.91;54.18;100368.34;2331476;75;50432;-78
2022/12/21 06:26:16;;;;;;;;;;;;;;;12.91;54.19;100368.34;2312240;75;50648;-77
2022/12/21 06:29:18;;;;;;;;;;;;;;;12.93;54.11;100377.00;2360883;74;50158;-77
2022/12/21 06:32:19;;;;;;;;;;;;;;;12.92;54.12;100372.66;2304456;75;51182;-78
2022/12/21 06:35:21;;;;;;;;;;;;;;;12.92;54.12;100372.19;2360522;75;50286;-77
2022/12/21 06:38:23;;;;;;;;;;;;;;;12.93;54.12;100379.16;2360562;74;50661;-77
2022/12/21 06:41:25;;;;;;;;;;;;;;;12.92;54.12;100375.31;2330536;75;49835;-78
2022/12/21 06:44:27;;;;;;;;;;;;;;;12.91;54.22;100376.31;2304697;75;52460;-77
2022/12/21 06:47:28;;;;;;;;;;;;;;;12.93;54.14;100377.83;2360504;74;50388;-77
2022/12/21 06:50:30;;;;;;;;;;;;;;;12.91;54.22;100377.14;2360831;75;50300;-76
2022/12/21 06:53:32;;;;;;;;;;;;;;;12.93;54.15;100377.83;2360771;75;51540;-77
2022/12/21 06:56:34;;;;;;;;;;;;;;;12.92;54.13;100373.52;2284187;76;51953;-77
2022/12/21 06:59:36;;;;;;;;;;;;;;;12.92;54.19;100380.16;2313268;76;50506;-77
2022/12/21 07:02:38;;;;;;;;;;;;;;;12.94;54.07;100384.80;2345282;76;51688;-77
2022/12/21 07:05:40;;;;;;;;;;;;;;;12.93;54.23;100390.28;2313370;76;50639;-76
2022/12/21 07:08:41;;;;;;;;;;;;;;;12.92;54.20;100393.44;2287485;76;52297;-77
2022/12/21 07:11:43;;;;;;;;;;;;;;;12.93;54.17;100386.30;2287836;76;52556;-77
2022/12/21 07:14:45;;;;;;;;;;;;;;;12.94;54.17;100386.63;2313434;76;50693;-77
2022/12/21 07:17:47;;;;;;;;;;;;;;;12.94;54.13;100384.80;2345175;74;51469;-77
2022/12/21 07:20:48;;;;;;;;;;;;;;;12.94;54.15;100378.16;2345500;76;52050;-77
2022/12/21 07:23:50;;;;;;;;;;;;;;;12.93;54.19;100384.47;2313344;76;53536;-78
2022/12/21 07:26:51;;;;;;;;;;;;;;;12.93;54.23;100387.62;2344896;75;51430;-78
2022/12/21 07:29:53;;;;;;;;;;;;;;;12.94;54.20;100381.31;2360936;74;50282;-78
2022/12/21 07:32:54;;;;;;;;;;;;;;;12.94;54.21;100385.30;2304708;75;52411;-78
2022/12/21 07:35:59;;;;;;;;;;;;;;;12.93;54.20;100396.92;2330882;75;51478;-78
2022/12/21 07:39:01;;;;;;;;;;;;;;;12.94;54.21;100391.94;2360885;74;50774;-78
2022/12/21 07:42:02;;;;;;;;;;;;;;;12.94;54.18;100385.30;2361095;75;50698;-76
2022/12/21 07:45:06;;;;;;;;;;;;;;;12.94;54.17;100384.80;2330916;75;50826;-77
2022/12/21 07:48:07;;;;;;;;;;;;;;;12.94;54.23;100385.30;2330564;74;49328;-77
2022/12/21 07:51:09;;;;;;;;;;;;;;;12.93;54.26;100382.31;2360984;75;50300;-77
2022/12/21 07:54:10;;;;;;;;;;;;;;;12.94;54.23;100387.95;2358302;75;50417;-78
2022/12/21 07:57:12;;;;;;;;;;;;;;;12.94;54.23;100385.30;2346473;75;50646;-77
2022/12/21 08:00:15;;;;;;;;;;;;;;;12.94;54.17;100382.64;2304800;75;52716;-77
2022/12/21 08:03:17;;;;;;;;;;;;;;;12.92;54.27;100392.11;2330811;75;50400;-78
2022/12/21 08:06:19;;;;;;;;;;;;;;;12.94;54.25;100397.25;2360738;75;51568;-77
2022/12/21 08:09:20;;;;;;;;;;;;;;;12.95;54.24;100413.05;2360838;74;51525;-78
2022/12/21 08:12:22;;;;;;;;;;;;;;;12.96;54.19;100416.53;2305015;75;52291;-78
2022/12/21 08:15:24;;;;;;;;;;;;;;;12.95;54.17;100416.20;2360919;75;50671;-77
2022/12/21 08:18:25;;;;;;;;;;;;;;;12.96;54.19;100412.55;2360631;74;50238;-77
2022/12/21 08:21:27;;;;;;;;;;;;;;;12.96;54.20;100411.22;2330936;75;50455;-78
2022/12/21 08:24:28;;;;;;;;;;;;;;;12.95;54.20;100411.72;2304636;75;51499;-77
2022/12/21 08:27:30;;;;;;;;;;;;;;;12.97;54.14;100422.17;2349150;74;50413;-78
2022/12/21 08:30:32;;;;;;;;;;;;;;;12.97;54.17;100423.03;2362409;75;50431;-78
2022/12/21 08:33:33;;;;;;;;;;;;;;;12.98;54.18;100430.50;2363665;75;50739;-78
2022/12/21 08:36:35;;;;;;;;;;;;;;;12.98;54.13;100434.48;2307316;75;51707;-78
2022/12/21 08:39:37;;;;;;;;;;;;;;;12.97;54.13;100433.66;2333809;75;50906;-78
2022/12/21 08:42:38;;;;;;;;;;;;;;;12.99;54.11;100438.80;2363548;74;50654;-78
2022/12/21 08:45:41;;;;;;;;;;;;;;;12.97;54.17;100440.30;2334565;75;50581;-78
2022/12/21 08:48:43;;;;;;;;;;;;;;;12.99;54.08;100429.00;2306777;75;51661;-78
2022/12/21 08:51:45;;;;;;;;;;;;;;;12.98;54.16;100431.83;2363243;75;51650;-78
2022/12/21 08:54:46;;;;;;;;;;;;;;;12.99;54.14;100424.19;2356878;75;51381;-77
2022/12/21 08:57:48;;;;;;;;;;;;;;;12.98;54.15;100414.56;2328316;76;50648;-78
2022/12/21 09:00:55;;;;;;;;;;;;;;;12.97;54.16;100413.73;2272161;76;51574;-78
2022/12/21 09:03:57;;;;;;;;;;;;;;;12.97;54.18;100419.52;2329593;76;50345;-77
2022/12/21 09:06:59;;;;;;;;;;;;;;;12.97;54.18;100419.52;2329164;75;50658;-77
2022/12/21 09:10:02;;;;;;;;;;;;;;;12.98;54.16;100421.20;2329814;76;51411;-78
2022/12/21 09:13:05;;;;;;;;;;;;;;;12.97;54.26;100414.20;2329848;76;50939;-77
2022/12/21 09:16:17;;;;;;;;;;;;;;;12.99;54.18;100418.88;2298435;76;51708;-78
2022/12/21 09:19:18;;;;;;;;;;;;;;;13.00;54.17;100420.56;2329680;76;50924;-78
2022/12/21 09:22:20;;;;;;;;;;;;;;;12.99;54.21;100420.20;2329586;76;50539;-77
2022/12/21 09:25:22;;;;;;;;;;;;;;;12.99;54.17;100422.86;2278776;76;51609;-77
2022/12/21 09:28:24;;;;;;;;;;;;;;;12.97;54.19;100417.72;2359895;74;50427;-78
2022/12/21 09:31:25;;;;;;;;;;;;;;;13.00;54.17;100423.22;2364015;75;51548;-78
2022/12/21 09:34:29;;;;;;;;;;;;;;;13.00;54.18;100420.56;2363542;75;22213;-77
2022/12/21 09:37:30;;;;;;;;;;;;;;;12.99;54.16;100430.33;2306943;74;51747;-77
2022/12/21 09:40:32;;;;;;;;;;;;;;;13.01;54.12;100432.84;2363036;75;50731;-78
2022/12/21 09:43:35;;;;;;;;;;;;;;;12.99;54.13;100423.69;2362838;75;51542;-78
2022/12/21 09:46:37;;;;;;;;;;;;;;;13.01;54.14;100427.53;2333152;75;51777;-77
2022/12/21 09:49:42;;;;;;;;;;;;;;;13.00;54.14;100426.70;2362682;74;51611;-78
2022/12/21 09:52:45;;;;;;;;;;;;;;;12.99;54.20;100423.69;2362777;75;50858;-78
2022/12/21 09:55:47;;;;;;;;;;;;;;;13.00;54.24;100431.19;2350974;75;50757;-78
2022/12/21 09:58:49;;;;;;;;;;;;;;;13.00;54.18;100423.22;2362865;74;50789;-77
2022/12/21 10:02:11;;;;;;;;;;;;;;;12.98;54.25;100419.87;2307531;75;51796;-77
2022/12/21 10:05:23;;;;;;;;;;;;;;;12.99;54.21;100424.19;2362443;75;50338;-77
2022/12/21 10:08:32;;;;;;;;;;;;;;;12.99;54.29;100426.84;2363072;74;50715;-77
2022/12/21 10:11:35;;;;;;;;;;;;;;;13.00;54.16;100414.75;2363102;75;50887;-78
2022/12/21 10:14:39;;;;;;;;;;;;;;;13.00;54.17;100408.61;2332621;75;51764;-77
2022/12/21 10:17:45;;;;;;;;;;;;;;;13.00;54.23;100409.94;2356569;74;50687;-77
2022/12/21 10:21:04;;;;;;;;;;;;;;;12.98;54.22;100403.94;2362920;75;51480;-77
2022/12/21 10:24:09;;;;;;;;;;;;;;;12.99;54.22;100402.94;2362747;74;22551;-78
2022/12/21 10:27:29;;;;;;;;;;;;;;;12.98;54.25;100412.73;2312401;76;51759;-77
2022/12/21 10:30:31;;;;;;;;;;;;;;;12.99;54.23;100409.58;2347437;76;50777;-78
2022/12/21 10:33:34;;;;;;;;;;;;;;;13.00;54.20;100409.44;2347575;75;50326;-78
2022/12/21 10:36:36;;;;;;;;;;;;;;;13.00;54.23;100400.64;2346325;76;50899;-77
2022/12/21 10:39:38;;;;;;;;;;;;;;;13.01;54.21;100400.97;2315049;76;51858;-78
2022/12/21 10:42:40;;;;;;;;;;;;;;;13.01;54.20;100402.30;2347279;76;50782;-78
2022/12/21 10:45:42;;;;;;;;;;;;;;;12.99;54.25;100392.31;2347003;76;50684;-77
2022/12/21 10:48:47;;;;;;;;;;;;;;;13.00;54.22;100391.34;2346378;74;50598;-78
2022/12/21 10:51:48;;;;;;;;;;;;;;;12.99;54.29;100387.00;2315157;76;51831;-77
2022/12/21 10:54:50;;;;;;;;;;;;;;;12.98;54.27;100380.86;2341315;75;50896;-78
2022/12/21 10:58:02;;;;;;;;;;;;;;;12.98;54.32;100384.02;2306094;76;51451;-77
2022/12/21 11:01:05;;;;;;;;;;;;;;;12.97;54.29;100387.17;2326899;76;50454;-77
2022/12/21 11:04:07;;;;;;;;;;;;;;;13.00;54.28;100384.71;2326926;76;51525;-78
2022/12/21 11:07:25;;;;;;;;;;;;;;;12.99;54.24;100385.17;2295261;76;51866;-77
2022/12/21 11:10:28;;;;;;;;;;;;;;;12.99;54.26;100378.54;2327281;76;50827;-78
2022/12/21 11:13:30;;;;;;;;;;;;;;;12.98;54.31;100378.71;2327170;76;50387;-78
2022/12/21 11:16:32;;;;;;;;;;;;;;;12.99;54.33;100375.05;2326987;76;51597;-78
2022/12/21 11:19:34;;;;;;;;;;;;;;;12.97;54.35;100370.38;2326985;76;50756;-78
2022/12/21 11:22:37;;;;;;;;;;;;;;;12.97;54.36;100370.38;2327280;76;50140;-77
2022/12/21 11:25:38;;;;;;;;;;;;;;;12.99;54.30;100375.05;2348780;75;51615;-78
2022/12/21 11:28:40;;;;;;;;;;;;;;;12.99;54.34;100367.09;2267238;77;52370;-78
2022/12/21 11:31:41;;;;;;;;;;;;;;;12.97;54.34;100368.59;2288164;77;51483;-77
2022/12/21 11:34:53;;;;;;;;;;;;;;;12.99;54.29;100361.77;2288043;77;50650;-78
2022/12/21 11:37:55;;;;;;;;;;;;;;;13.00;54.29;100367.45;2288189;76;50317;-78
2022/12/21 11:40:57;;;;;;;;;;;;;;;12.97;54.35;100355.31;2232078;77;52769;-79
2022/12/21 11:43:59;;;;;;;;;;;;;;;12.98;54.32;100354.31;2288253;77;50772;-78
2022/12/21 11:47:08;;;;;;;;;;;;;;;12.98;54.35;100342.86;2287963;77;50660;-78
2022/12/21 11:50:11;;;;;;;;;;;;;;;12.98;54.34;100342.36;2287989;76;51514;-78
2022/12/21 11:53:14;;;;;;;;;;;;;;;12.99;54.35;100345.34;2257363;77;52640;-77
2022/12/21 11:56:20;;;;;;;;;;;;;;;13.00;54.33;100351.52;2338261;75;50468;-78
2022/12/21 11:59:39;;;;;;;;;;;;;;;12.99;54.40;100348.50;2360636;74;51586;-78
2022/12/21 12:02:42;;;;;;;;;;;;;;;12.98;54.39;100343.69;2360980;75;50338;-78
2022/12/21 12:05:45;;;;;;;;;;;;;;;12.99;54.35;100353.31;2330251;75;51289;-78
2022/12/21 12:08:51;;;;;;;;;;;;;;;12.99;54.33;100349.33;2361263;74;50657;-77
2022/12/21 12:12:00;;;;;;;;;;;;;;;13.00;54.33;100346.20;2361473;75;51491;-77
2022/12/21 12:15:20;;;;;;;;;;;;;;;13.01;54.30;100347.86;2361426;74;51488;-77
2022/12/21 12:18:26;;;;;;;;;;;;;;;12.98;54.37;100333.06;2330880;75;50984;-78
2022/12/21 12:21:30;;;;;;;;;;;;;;;13.01;54.30;100335.91;2361381;75;51582;-78
2022/12/21 12:24:49;;;;;;;;;;;;;;;12.99;54.33;100333.39;2361073;75;51498;-78
2022/12/21 12:28:05;;;;;;;;;;;;;;;13.00;54.39;100336.41;2336843;75;51519;-77
2022/12/21 12:31:14;;;;;;;;;;;;;;;12.98;54.46;100332.23;2294951;76;51186;-78
2022/12/21 12:34:30;;;;;;;;;;;;;;;12.97;54.43;100329.22;2327051;76;50479;-77
2022/12/21 12:37:33;;;;;;;;;;;;;;;12.98;54.43;100325.09;2326573;76;51579;-78
2022/12/21 12:40:53;;;;;;;;;;;;;;;12.97;54.42;100328.75;2327291;76;50555;-78
2022/12/21 12:43:59;;;;;;;;;;;;;;;12.98;54.38;100331.73;2295505;76;51268;-78
2022/12/21 12:47:02;;;;;;;;;;;;;;;12.97;54.42;100330.55;2326928;76;51214;-78
2022/12/21 12:50:12;;;;;;;;;;;;;;;12.98;54.41;100323.77;2326945;76;51505;-77
2022/12/21 12:53:15;;;;;;;;;;;;;;;13.00;54.39;100333.75;2326602;75;51660;-78
2022/12/21 12:56:35;;;;;;;;;;;;;;;12.99;54.43;100336.05;2306952;75;52523;-77
2022/12/21 12:59:44;;;;;;;;;;;;;;;12.99;54.41;100329.41;2361419;74;51480;-78
2022/12/21 13:02:47;;;;;;;;;;;;;;;12.99;54.40;100329.91;2361463;75;50324;-78
2022/12/21 13:06:07;;;;;;;;;;;;;;;13.00;54.39;100330.27;2361386;75;50410;-77
2022/12/21 13:09:10;;;;;;;;;;;;;;;13.00;54.40;100326.28;2331262;75;52354;-78
2022/12/21 13:15:54;;;;;;;;;;;;;;;12.99;54.40;100324.09;2332969;76;22778;-77
2022/12/21 13:18:57;;;;;;;;;;;;;;;12.98;54.39;100324.27;2331961;76;50340;-77
2022/12/21 13:22:00;;;;;;;;;;;;;;;12.99;54.41;100316.62;2332178;76;51584;-77
2022/12/21 13:25:03;;;;;;;;;;;;;;;13.00;54.46;100318.31;2340853;75;50484;-77
2022/12/21 13:28:07;;;;;;;;;;;;;;;13.00;54.43;100311.67;2351375;74;51446;-78
2022/12/21 13:31:08;;;;;;;;;;;;;;;13.01;54.39;100301.37;2358629;75;50367;-77
2022/12/21 13:34:12;;;;;;;;;;;;;;;13.01;54.45;100294.73;2331694;75;51026;-78
2022/12/21 13:37:16;;;;;;;;;;;;;;;13.01;54.47;100309.34;2353855;75;51491;-78
2022/12/21 13:40:19;;;;;;;;;;;;;;;13.02;54.42;100317.64;2358801;75;51599;-77
2022/12/21 13:43:34;;;;;;;;;;;;;;;13.01;54.48;100314.66;2358762;74;50438;-78
2022/12/21 13:46:37;;;;;;;;;;;;;;;13.01;54.47;100310.67;2331636;75;52577;-78
2022/12/21 13:49:56;;;;;;;;;;;;;;;12.98;54.50;100309.66;2368131;74;51580;-78
2022/12/21 13:53:15;;;;;;;;;;;;;;;13.01;54.47;100310.67;2378522;74;50718;-78
2022/12/21 13:56:36;;;;;;;;;;;;;;;13.01;54.51;100306.69;2367582;74;50795;-78
2022/12/21 13:59:40;;;;;;;;;;;;;;;13.00;54.48;100294.41;2347461;75;51003;-77
2022/12/21 14:02:55;;;;;;;;;;;;;;;12.97;54.55;100295.55;2378106;75;51742;-78
2022/12/21 14:06:15;;;;;;;;;;;;;;;12.99;54.49;100292.73;2377940;75;50721;-77
2022/12/21 14:09:25;;;;;;;;;;;;;;;13.00;54.48;100289.93;2378121;73;51568;-78
2022/12/21 14:12:46;;;;;;;;;;;;;;;13.00;54.51;100290.43;2347838;75;52477;-78
2022/12/21 14:15:49;;;;;;;;;;;;;;;13.00;54.47;100289.10;2378246;74;50818;-78
2022/12/21 14:18:55;;;;;;;;;;;;;;;13.00;54.47;100289.93;2377669;73;50892;-78
2022/12/21 14:21:56;;;;;;;;;;;;;;;12.99;54.52;100288.74;2378385;75;50703;-78
2022/12/21 14:25:00;;;;;;;;;;;;;;;12.99;54.51;100288.23;2368005;74;50678;-78
2022/12/21 14:28:03;;;;;;;;;;;;;;;13.00;54.52;100285.95;2323933;75;51550;-79
2022/12/21 14:31:12;;;;;;;;;;;;;;;12.99;54.47;100290.89;2316183;76;52464;-78
2022/12/21 14:34:14;;;;;;;;;;;;;;;13.00;54.50;100287.77;2347924;76;51415;-79
2022/12/21 14:37:17;;;;;;;;;;;;;;;13.01;54.48;100286.27;2315705;76;52344;-78
2022/12/21 14:40:24;;;;;;;;;;;;;;;13.00;54.50;100288.59;2347957;76;51641;-78
2022/12/21 14:43:26;;;;;;;;;;;;;;;13.00;54.53;100282.46;2347813;76;50431;-79
2022/12/21 14:46:28;;;;;;;;;;;;;;;12.99;54.56;100282.10;2347850;76;51558;-78
2022/12/21 14:49:33;;;;;;;;;;;;;;;12.99;54.53;100294.05;2290198;76;52828;-78
2022/12/21 14:52:34;;;;;;;;;;;;;;;13.01;54.52;100306.69;2348104;75;51425;-78
2022/12/21 14:55:36;;;;;;;;;;;;;;;13.00;54.56;100295.23;2357905;75;50821;-79
2022/12/21 14:58:45;;;;;;;;;;;;;;;12.99;54.54;100289.57;2377022;73;51804;-79
2022/12/21 15:01:51;;;;;;;;;;;;;;;13.00;54.52;100289.93;2347707;75;49558;-78
2022/12/21 15:04:57;;;;;;;;;;;;;;;13.00;54.48;100289.10;2377299;75;50443;-78
2022/12/21 15:08:08;;;;;;;;;;;;;;;12.99;54.51;100270.15;2378286;73;51652;-78
2022/12/21 15:11:11;;;;;;;;;;;;;;;13.01;54.48;100285.44;2378256;73;50422;-78
2022/12/21 15:14:27;;;;;;;;;;;;;;;13.00;54.53;100287.27;2346972;73;51968;-79
2022/12/21 15:17:31;;;;;;;;;;;;;;;12.99;54.50;100280.77;2378147;73;51607;-79
2022/12/21 15:20:40;;;;;;;;;;;;;;;13.00;54.52;100285.11;2378013;75;50327;-78
2022/12/21 15:23:42;;;;;;;;;;;;;;;13.00;54.51;100291.25;2377547;75;50775;-78
2022/12/21 15:26:45;;;;;;;;;;;;;;;12.98;54.54;100276.46;2326033;76;52536;-78
2022/12/21 15:29:48;;;;;;;;;;;;;;;13.00;54.57;100286.45;2347781;75;50373;-78
2022/12/21 15:32:52;;;;;;;;;;;;;;;12.99;54.54;100280.27;2347261;74;51697;-78
2022/12/21 15:35:57;;;;;;;;;;;;;;;12.99;54.55;100288.74;2347488;74;51555;-78
2022/12/21 15:38:58;;;;;;;;;;;;;;;12.98;54.59;100284.43;2315892;76;51786;-78
2022/12/21 15:42:01;;;;;;;;;;;;;;;12.99;54.56;100282.10;2347690;76;51543;-78
2022/12/21 15:45:22;;;;;;;;;;;;;;;12.98;54.58;100279.95;2347054;74;51371;-78
2022/12/21 15:48:28;;;;;;;;;;;;;;;12.97;54.62;100274.78;2347470;74;50939;-77
2022/12/21 15:51:30;;;;;;;;;;;;;;;12.98;54.58;100279.12;2347593;74;50810;-80
2022/12/21 15:54:32;;;;;;;;;;;;;;;12.97;54.60;100265.02;2355715;75;50432;-78
2022/12/21 15:57:33;;;;;;;;;;;;;;;12.98;54.58;100269.83;2336985;73;51639;-78
2022/12/21 16:00:42;;;;;;;;;;;;;;;12.98;54.59;100268.50;2378619;75;50666;-79
2022/12/21 16:03:44;;;;;;;;;;;;;;;12.97;54.61;100266.34;2378625;75;50112;-77
2022/12/21 16:06:47;;;;;;;;;;;;;;;12.97;54.62;100270.33;2378105;73;50441;-79